Terminal Aerodrome Forecast
Issued by NWS Albuquerque, NM

Home | Current Version | Previous Version | Text Only | Print | Product List | Glossary On
Versions: 1 2 3 4 5 6 7 8 9 10 11 12 13
000
FTUS45 KABQ 180520
TAFABQ
TAF
KABQ 180520Z 1806/1906 08008KT P6SM FEW120
     FM181100 VRB05KT P6SM FEW110
     FM181900 26006KT P6SM FEW110
     FM190200 10008KT P6SM FEW110=

USA.gov is the U.S. government's official web portal to all federal, state and local government web resources and services.